Time;durP1;ratioP1;P1;durP2;ratioP2;P2;SDS_P1;SDS_P2;PMS_P1;PMS_P2;Temp;Humidity;BMP_temperature;BMP_pressure;BME280_temperature;BME280_humidity;BME280_pressure;Samples;Min_cycle;Max_cycle;Signal;HPM_P1;HPM_P2
2022/10/13 00:01:33;;;;;;;29.83;13.35;;;;;;;;;;4971989;28;20062;-70
2022/10/13 00:03:59;;;;;;;30.30;13.88;;;;;;;;;;4952946;28;20043;-70
2022/10/13 00:06:26;;;;;;;30.38;13.00;;;;;;;;;;4968642;28;20045;-70
2022/10/13 00:08:52;;;;;;;30.13;14.48;;;;;;;;;;4970684;28;20031;-70
2022/10/13 00:11:20;;;;;;;26.15;12.30;;;;;;;;;;4967758;28;20059;-71
2022/10/13 00:13:46;;;;;;;25.17;13.63;;;;;;;;;;4965635;28;20041;-70
2022/10/13 00:16:13;;;;;;;30.45;14.82;;;;;;;;;;4963243;28;20043;-70
2022/10/13 00:18:39;;;;;;;27.35;14.93;;;;;;;;;;4963833;28;20035;-70
2022/10/13 00:21:07;;;;;;;35.92;14.48;;;;;;;;;;4970114;28;20158;-70
2022/10/13 00:23:33;;;;;;;27.95;14.77;;;;;;;;;;4965758;28;20035;-70
2022/10/13 00:26:01;;;;;;;25.20;13.35;;;;;;;;;;4971530;28;20046;-72
2022/10/13 00:28:27;;;;;;;36.72;14.68;;;;;;;;;;4970291;28;20118;-70
2022/10/13 00:30:53;;;;;;;27.70;14.40;;;;;;;;;;4966878;28;20039;-70
2022/10/13 00:33:19;;;;;;;29.05;14.75;;;;;;;;;;4968052;28;20438;-70
2022/10/13 00:35:46;;;;;;;33.67;16.08;;;;;;;;;;4967076;28;20054;-70
2022/10/13 00:38:13;;;;;;;27.83;13.48;;;;;;;;;;4975233;28;20596;-70
2022/10/13 00:40:45;;;;;;;30.30;15.88;;;;;;;;;;4968027;28;20373;-70
2022/10/13 00:43:16;;;;;;;26.42;14.82;;;;;;;;;;4971261;28;20110;-70
2022/10/13 00:45:42;;;;;;;26.63;13.07;;;;;;;;;;4980092;28;20053;-71
2022/10/13 00:48:08;;;;;;;29.38;14.15;;;;;;;;;;4974573;28;20031;-71
2022/10/13 00:50:39;;;;;;;28.88;15.90;;;;;;;;;;4966689;28;20035;-71
2022/10/13 00:53:06;;;;;;;30.88;15.73;;;;;;;;;;4967460;28;21350;-71
2022/10/13 00:55:33;;;;;;;24.55;15.07;;;;;;;;;;4975450;28;20039;-70
2022/10/13 00:58:01;;;;;;;22.42;13.45;;;;;;;;;;4971026;28;20030;-70
2022/10/13 01:00:28;;;;;;;25.08;14.52;;;;;;;;;;4974154;28;20030;-70
2022/10/13 01:02:54;;;;;;;30.38;14.00;;;;;;;;;;4968578;28;20022;-70
2022/10/13 01:05:21;;;;;;;24.77;13.35;;;;;;;;;;4967762;28;20085;-70
2022/10/13 01:07:48;;;;;;;31.02;14.00;;;;;;;;;;4973921;28;20039;-71
2022/10/13 01:10:23;;;;;;;25.30;13.40;;;;;;;;;;4967123;28;20163;-70
2022/10/13 01:12:58;;;;;;;29.65;14.80;;;;;;;;;;4972845;28;20395;-70
2022/10/13 01:15:39;;;;;;;30.20;14.27;;;;;;;;;;4973969;28;20039;-70
2022/10/13 01:18:14;;;;;;;30.20;13.75;;;;;;;;;;4970523;28;20027;-70
2022/10/13 01:21:04;;;;;;;29.15;13.65;;;;;;;;;;4968096;28;20038;-70
2022/10/13 01:24:07;;;;;;;31.85;14.90;;;10.70;99.90;;;;;;4978599;28;20113;-70
2022/10/13 01:26:44;;;;;;;28.25;14.00;;;;;;;;;;4966330;28;20252;-70
2022/10/13 01:29:14;;;;;;;23.35;13.48;;;;;;;;;;4968811;28;20049;-70
2022/10/13 01:31:42;;;;;;;25.15;13.35;;;;;;;;;;4971687;28;20042;-70
2022/10/13 01:34:15;;;;;;;27.25;14.13;;;;;;;;;;4967271;28;20141;-70
2022/10/13 01:36:47;;;;;;;27.60;14.90;;;;;;;;;;4972521;28;20031;-70
2022/10/13 01:40:08;;;;;;;28.38;14.27;;;10.40;99.90;;;;;;4968484;28;20439;-70
2022/10/13 01:42:47;;;;;;;29.75;12.63;;;;;;;;;;4932742;29;20090;-70
2022/10/13 01:45:14;;;;;;;23.23;12.88;;;;;;;;;;4956505;28;20034;-71
2022/10/13 01:47:41;;;;;;;26.27;13.10;;;;;;;;;;4964417;28;20129;-70
2022/10/13 01:50:08;;;;;;;39.78;13.63;;;;;;;;;;4974952;28;20030;-70
2022/10/13 01:52:35;;;;;;;27.73;13.13;;;;;;;;;;4976122;28;20404;-70
2022/10/13 01:55:05;;;;;;;34.22;14.68;;;;;;;;;;4970183;28;20588;-70
2022/10/13 01:57:42;;;;;;;30.98;13.85;;;;;;;;;;4987468;28;20480;-70
2022/10/13 02:00:10;;;;;;;22.85;12.75;;;;;;;;;;4986439;28;20038;-71
2022/10/13 02:02:45;;;;;;;26.77;14.07;;;;;;;;;;4968676;28;20035;-71
2022/10/13 02:05:20;;;;;;;29.35;12.77;;;;;;;;;;4959938;28;20039;-70
2022/10/13 02:07:48;;;;;;;26.83;13.52;;;;;;;;;;4968688;28;20066;-71
2022/10/13 02:10:20;;;;;;;23.10;12.43;;;;;;;;;;4967188;28;20058;-70
2022/10/13 02:12:49;;;;;;;23.40;13.50;;;;;;;;;;4968663;28;20042;-69
2022/10/13 02:15:17;;;;;;;28.13;14.00;;;;;;;;;;4960166;28;20038;-69
2022/10/13 02:17:43;;;;;;;24.52;13.82;;;;;;;;;;4979456;28;20034;-72
2022/10/13 02:20:09;;;;;;;26.55;13.52;;;;;;;;;;4987016;28;20081;-69
2022/10/13 02:22:37;;;;;;;28.58;13.00;;;;;;;;;;4964982;28;20035;-71
2022/10/13 02:25:03;;;;;;;24.58;13.57;;;;;;;;;;4969730;28;20126;-71
2022/10/13 02:27:29;;;;;;;24.27;13.23;;;;;;;;;;4971653;28;20108;-71
2022/10/13 02:29:56;;;;;;;32.80;15.02;;;;;;;;;;4974057;28;20047;-70
2022/10/13 02:32:22;;;;;;;27.02;14.35;;;;;;;;;;4965454;28;20073;-69
2022/10/13 02:34:48;;;;;;;30.75;14.63;;;;;;;;;;4973166;28;20027;-69
2022/10/13 02:37:14;;;;;;;31.17;14.23;;;;;;;;;;4965307;28;20054;-70
2022/10/13 02:39:40;;;;;;;25.23;12.98;;;;;;;;;;4972865;28;20030;-70
2022/10/13 02:42:06;;;;;;;31.50;15.55;;;;;;;;;;4967409;28;20050;-70
2022/10/13 02:44:32;;;;;;;30.38;15.02;;;;;;;;;;4963047;28;20064;-70
2022/10/13 02:46:59;;;;;;;28.00;14.80;;;;;;;;;;4973212;28;20022;-71
2022/10/13 02:49:25;;;;;;;22.95;13.90;;;;;;;;;;4969641;28;20027;-69
2022/10/13 02:51:52;;;;;;;29.00;14.48;;;;;;;;;;4966514;28;20045;-69
2022/10/13 02:54:18;;;;;;;27.77;15.55;;;;;;;;;;4970440;28;20038;-70
2022/10/13 02:56:44;;;;;;;33.67;16.77;;;;;;;;;;4969218;28;20034;-69
2022/10/13 02:59:10;;;;;;;30.92;14.98;;;;;;;;;;4972306;28;20106;-70
2022/10/13 03:01:40;;;;;;;30.55;15.52;;;;;;;;;;4973175;28;20058;-70
2022/10/13 03:04:06;;;;;;;30.35;15.88;;;;;;;;;;4970383;28;20062;-70
2022/10/13 03:06:32;;;;;;;34.83;15.38;;;;;;;;;;4970179;28;21764;-70
2022/10/13 03:08:58;;;;;;;29.52;16.98;;;;;;;;;;4965151;28;20566;-70
2022/10/13 03:11:24;;;;;;;31.88;16.65;;;;;;;;;;4971139;28;20038;-70
2022/10/13 03:13:50;;;;;;;25.70;15.88;;;;;;;;;;4964665;28;20035;-70
2022/10/13 03:16:16;;;;;;;34.83;17.27;;;;;;;;;;4971801;28;20039;-71
2022/10/13 03:18:42;;;;;;;33.15;16.95;;;;;;;;;;4957730;28;20035;-70
2022/10/13 03:21:09;;;;;;;32.45;16.85;;;;;;;;;;4985987;28;20045;-69
2022/10/13 03:23:35;;;;;;;34.13;15.65;;;;;;;;;;4962370;28;20058;-70
2022/10/13 03:26:03;;;;;;;37.15;16.40;;;;;;;;;;4971341;28;20034;-70
2022/10/13 03:28:29;;;;;;;28.70;15.57;;;;;;;;;;4966711;28;20038;-70
2022/10/13 03:31:02;;;;;;;35.33;16.70;;;;;;;;;;4987815;28;20031;-70
2022/10/13 03:33:28;;;;;;;32.05;16.25;;;;;;;;;;4967401;28;20384;-70
2022/10/13 03:35:57;;;;;;;32.33;17.00;;;;;;;;;;4968725;28;20027;-70
2022/10/13 03:38:23;;;;;;;35.83;16.73;;;;;;;;;;4981220;28;20472;-69
2022/10/13 03:40:49;;;;;;;35.25;18.15;;;;;;;;;;4972959;28;20041;-70
2022/10/13 03:43:15;;;;;;;30.00;17.13;;;;;;;;;;4957974;28;20042;-70
2022/10/13 03:45:41;;;;;;;43.08;19.38;;;;;;;;;;4962234;28;20092;-69
2022/10/13 03:48:07;;;;;;;36.90;17.75;;;;;;;;;;4967756;28;20039;-70
2022/10/13 03:50:33;;;;;;;35.53;18.02;;;;;;;;;;4967980;28;20125;-69
2022/10/13 03:52:59;;;;;;;34.33;17.90;;;;;;;;;;4967864;28;20038;-69
2022/10/13 03:55:25;;;;;;;32.95;18.35;;;;;;;;;;4960200;28;20030;-70
2022/10/13 03:57:51;;;;;;;34.20;18.92;;;;;;;;;;4973294;28;20475;-69
2022/10/13 04:00:17;;;;;;;31.73;18.20;;;;;;;;;;4974793;28;20042;-70
2022/10/13 04:02:43;;;;;;;38.97;18.90;;;;;;;;;;4969281;28;20184;-69
2022/10/13 04:05:09;;;;;;;35.97;19.50;;;;;;;;;;4970182;28;20041;-69
2022/10/13 04:07:35;;;;;;;33.22;18.77;;;;;;;;;;4971169;28;20039;-70
2022/10/13 04:10:01;;;;;;;32.05;16.88;;;;;;;;;;4970712;28;20078;-70
2022/10/13 04:12:27;;;;;;;33.38;18.33;;;;;;;;;;4969854;28;20035;-69
2022/10/13 04:14:53;;;;;;;30.00;18.17;;;;;;;;;;4975138;28;20047;-69
2022/10/13 04:17:19;;;;;;;35.80;18.55;;;;;;;;;;4962764;28;20034;-69
2022/10/13 04:19:45;;;;;;;28.73;17.35;;;;;;;;;;4975994;28;20035;-69
2022/10/13 04:22:11;;;;;;;34.50;19.13;;;;;;;;;;4974730;28;20090;-69
2022/10/13 04:24:37;;;;;;;30.10;19.05;;;;;;;;;;4966769;28;20061;-69
2022/10/13 04:27:03;;;;;;;39.17;20.05;;;;;;;;;;4970411;28;20379;-70
2022/10/13 04:29:29;;;;;;;32.92;19.67;;;;;;;;;;4971088;28;20031;-68
2022/10/13 04:31:55;;;;;;;41.35;22.17;;;;;;;;;;4987892;28;20066;-69
2022/10/13 04:34:21;;;;;;;35.33;19.85;;;;;;;;;;4962054;28;20424;-70
2022/10/13 04:36:50;;;;;;;43.90;20.65;;;;;;;;;;4965419;28;20043;-69
2022/10/13 04:39:17;;;;;;;39.92;21.38;;;;;;;;;;4955038;28;20089;-69
2022/10/13 04:41:43;;;;;;;46.15;21.23;;;;;;;;;;4974915;28;20464;-70
2022/10/13 04:44:09;;;;;;;35.55;21.30;;;;;;;;;;4973421;28;20043;-69
2022/10/13 04:46:35;;;;;;;43.63;23.92;;;;;;;;;;4969651;28;20493;-69
2022/10/13 04:49:01;;;;;;;42.13;21.77;;;;;;;;;;4972333;28;20050;-69
2022/10/13 04:51:27;;;;;;;39.08;20.50;;;;;;;;;;4970089;28;20031;-69
2022/10/13 04:53:54;;;;;;;43.70;22.13;;;;;;;;;;4974517;28;20047;-69
2022/10/13 04:56:20;;;;;;;38.28;21.58;;;;;;;;;;4973681;28;20031;-69
2022/10/13 04:58:46;;;;;;;41.60;22.88;;;;;;;;;;4971972;28;20116;-71
2022/10/13 05:01:14;;;;;;;41.70;22.20;;;;;;;;;;4974484;28;20062;-70
2022/10/13 05:03:41;;;;;;;42.55;22.08;;;;;;;;;;4960563;28;20038;-71
2022/10/13 05:06:13;;;;;;;42.80;23.15;;;;;;;;;;4957113;28;20066;-71
2022/10/13 05:08:39;;;;;;;37.08;22.02;;;;;;;;;;4947224;28;20039;-70
2022/10/13 05:11:05;;;;;;;37.95;22.25;;;;;;;;;;4952065;28;20745;-70
2022/10/13 05:13:31;;;;;;;41.65;23.48;;;;;;;;;;4949527;28;20043;-70
2022/10/13 05:15:57;;;;;;;40.58;22.70;;;;;;;;;;4951911;28;20578;-70
2022/10/13 05:18:23;;;;;;;38.80;22.77;;;;;;;;;;4964858;28;20117;-70
2022/10/13 05:20:49;;;;;;;45.40;24.17;;;;;;;;;;4960165;28;20494;-69
2022/10/13 05:23:15;;;;;;;46.08;24.58;;;;;;;;;;4967830;28;20472;-70
2022/10/13 05:25:41;;;;;;;41.67;24.23;;;;;;;;;;4985698;28;20051;-71
2022/10/13 05:28:08;;;;;;;56.42;27.42;;;;;;;;;;4971984;28;20222;-69
2022/10/13 05:30:34;;;;;;;40.78;24.98;;;;;;;;;;4967358;28;20492;-70
2022/10/13 05:33:00;;;;;;;40.55;24.15;;;;;;;;;;4961273;28;20385;-70
2022/10/13 05:35:26;;;;;;;39.58;22.75;;;;;;;;;;4955353;28;20045;-70
2022/10/13 05:37:52;;;;;;;54.08;25.50;;;;;;;;;;4967569;28;20066;-70
2022/10/13 05:40:21;;;;;;;43.08;24.05;;;;;;;;;;4969862;28;20058;-69
2022/10/13 05:42:50;;;;;;;48.35;25.05;;;;;;;;;;4967776;28;20019;-70
2022/10/13 05:45:17;;;;;;;41.20;24.77;;;;;;;;;;4962838;28;20050;-69
2022/10/13 05:47:43;;;;;;;54.03;26.60;;;;;;;;;;4971051;28;20026;-70
2022/10/13 05:50:10;;;;;;;43.38;26.00;;;;;;;;;;4971814;28;20039;-71
2022/10/13 05:52:36;;;;;;;45.83;26.48;;;;;;;;;;4966959;28;20042;-70
2022/10/13 05:55:04;;;;;;;47.42;26.60;;;;;;;;;;4971138;28;20037;-71
2022/10/13 05:57:32;;;;;;;51.63;27.10;;;;;;;;;;4968371;28;20031;-70
2022/10/13 05:59:59;;;;;;;44.13;26.33;;;;;;;;;;4970009;28;20039;-70
2022/10/13 06:02:30;;;;;;;53.75;27.92;;;;;;;;;;4973362;28;20030;-69
2022/10/13 06:04:57;;;;;;;45.53;27.98;;;;;;;;;;4969575;28;20122;-70
2022/10/13 06:07:23;;;;;;;51.38;28.63;;;;;;;;;;4968083;28;20030;-72
2022/10/13 06:09:49;;;;;;;45.67;27.33;;;;;;;;;;4970706;28;20054;-72
2022/10/13 06:12:15;;;;;;;52.50;29.35;;;;;;;;;;4964164;28;20310;-72
2022/10/13 06:14:41;;;;;;;50.97;29.35;;;;;;;;;;4987094;28;20129;-70
2022/10/13 06:17:07;;;;;;;50.78;30.17;;;;;;;;;;4973860;28;20444;-69
2022/10/13 06:19:33;;;;;;;51.20;28.90;;;;;;;;;;4963740;28;20061;-69
2022/10/13 06:21:59;;;;;;;51.78;29.98;;;;;;;;;;4977138;28;20035;-70
2022/10/13 06:24:26;;;;;;;55.55;30.92;;;;;;;;;;4964345;28;20035;-69
2022/10/13 06:26:52;;;;;;;57.47;30.42;;;;;;;;;;4961202;28;20027;-71
2022/10/13 06:29:18;;;;;;;56.58;30.75;;;;;;;;;;4967366;28;20420;-69
2022/10/13 06:31:44;;;;;;;59.65;30.63;;;;;;;;;;4973543;28;20121;-69
2022/10/13 06:34:11;;;;;;;60.33;31.58;;;;;;;;;;4961647;28;20383;-69
2022/10/13 06:36:37;;;;;;;55.25;32.42;;;;;;;;;;4969418;28;20023;-70
2022/10/13 06:39:03;;;;;;;58.75;30.58;;;;;;;;;;4964555;28;20045;-69
2022/10/13 06:41:29;;;;;;;55.50;32.60;;;;;;;;;;4969540;28;20030;-69
2022/10/13 06:43:55;;;;;;;55.80;31.85;;;;;;;;;;4955263;28;20042;-70
2022/10/13 06:46:21;;;;;;;60.38;35.40;;;;;;;;;;4960628;28;20043;-70
2022/10/13 06:48:51;;;;;;;55.08;31.73;;;;;;;;;;4970153;28;20106;-68
2022/10/13 06:51:17;;;;;;;61.95;33.05;;;;;;;;;;4967053;28;20027;-69
2022/10/13 06:53:43;;;;;;;60.58;31.27;;;;;;;;;;4972958;28;20026;-68
2022/10/13 06:56:10;;;;;;;53.95;29.45;;;;;;;;;;4970469;28;20353;-68
2022/10/13 06:58:37;;;;;;;52.45;30.50;;;;;;;;;;4968176;28;20034;-71
2022/10/13 07:01:03;;;;;;;57.80;29.15;;;;;;;;;;4964002;28;20062;-68
2022/10/13 07:03:29;;;;;;;57.70;29.90;;;;;;;;;;4972988;28;20027;-67
2022/10/13 07:05:59;;;;;;;51.28;27.88;;;;;;;;;;4969771;28;20487;-68
2022/10/13 07:08:25;;;;;;;47.30;28.83;;;;;;;;;;4964435;28;20031;-69
2022/10/13 07:10:51;;;;;;;51.45;29.45;;;;;;;;;;4972583;28;20235;-70
2022/10/13 07:13:17;;;;;;;49.13;28.95;;;;;;;;;;4963456;28;20085;-69
2022/10/13 07:15:43;;;;;;;51.72;29.02;;;;;;;;;;4970156;28;20395;-68
2022/10/13 07:18:09;;;;;;;53.72;29.40;;;;;;;;;;4970481;28;20039;-68
2022/10/13 07:20:35;;;;;;;56.25;34.35;;;;;;;;;;4967227;28;20039;-67
2022/10/13 07:23:01;;;;;;;49.42;29.88;;;;;;;;;;4969019;28;20045;-67
2022/10/13 07:25:27;;;;;;;52.78;31.08;;;;;;;;;;4958617;28;20038;-69
2022/10/13 07:27:54;;;;;;;52.90;29.58;;;;;;;;;;4963018;28;20126;-70
2022/10/13 07:30:19;;;;;;;54.10;29.88;;;;;;;;;;4961765;28;20038;-69
2022/10/13 07:32:46;;;;;;;54.22;30.27;;;;;;;;;;4966684;28;20042;-69
2022/10/13 07:35:12;;;;;;;53.08;31.25;;;;;;;;;;4970299;28;20023;-67
2022/10/13 07:37:38;;;;;;;54.30;30.52;;;;;;;;;;4968246;28;20384;-68
2022/10/13 07:40:05;;;;;;;45.00;29.05;;;;;;;;;;4970332;28;20038;-68
2022/10/13 07:42:31;;;;;;;53.65;29.58;;;;;;;;;;4961320;28;20034;-68
2022/10/13 07:44:57;;;;;;;43.65;28.65;;;;;;;;;;4967506;28;20484;-68
2022/10/13 07:47:23;;;;;;;50.75;29.00;;;;;;;;;;4955106;28;20042;-67
2022/10/13 07:49:49;;;;;;;45.35;27.40;;;;;;;;;;4972677;28;20046;-68
2022/10/13 07:52:15;;;;;;;51.08;27.00;;;;;;;;;;4969553;28;20031;-69
2022/10/13 07:54:41;;;;;;;45.83;28.55;;;;;;;;;;4963795;28;20031;-69
2022/10/13 07:57:08;;;;;;;51.13;27.42;;;;;;;;;;4970995;28;20039;-70
2022/10/13 07:59:34;;;;;;;48.83;29.85;;;;;;;;;;4977484;28;20039;-68
2022/10/13 08:02:00;;;;;;;53.30;28.23;;;;;;;;;;4965970;28;20112;-69
2022/10/13 08:04:33;;;;;;;53.67;28.80;;;;;;;;;;4965796;28;20034;-68
2022/10/13 08:07:00;;;;;;;58.28;29.90;;;;;;;;;;4969793;28;20396;-70
2022/10/13 08:09:26;;;;;;;58.15;30.95;;;;;;;;;;4957591;28;20050;-69
2022/10/13 08:11:52;;;;;;;49.90;30.48;;;;;;;;;;4968695;28;20046;-68
2022/10/13 08:14:19;;;;;;;131.40;80.68;;;;;;;;;;4979026;28;20403;-68
2022/10/13 08:16:45;;;;;;;56.15;32.45;;;;;;;;;;4962281;28;20496;-69
2022/10/13 08:19:15;;;;;;;60.80;31.52;;;;;;;;;;4979988;28;20042;-68
2022/10/13 08:21:42;;;;;;;50.15;30.92;;;;;;;;;;4964635;28;20042;-70
2022/10/13 08:24:12;;;;;;;54.45;30.02;;;;;;;;;;4965750;28;20503;-69
2022/10/13 08:26:38;;;;;;;51.53;30.15;;;;;;;;;;4963266;28;20034;-68
2022/10/13 08:29:05;;;;;;;63.28;30.65;;;;;;;;;;4965013;28;20031;-68
2022/10/13 08:31:31;;;;;;;52.60;30.73;;;;;;;;;;4958696;28;20027;-68
2022/10/13 08:33:57;;;;;;;54.58;31.73;;;;;;;;;;4957251;28;20034;-71
2022/10/13 08:36:23;;;;;;;53.90;31.27;;;;;;;;;;4959573;28;20113;-68
2022/10/13 08:38:51;;;;;;;55.17;31.63;;;;;;;;;;4968677;28;20155;-70
2022/10/13 08:41:19;;;;;;;58.25;32.20;;;;;;;;;;4970002;28;20038;-68
2022/10/13 08:43:48;;;;;;;65.10;30.70;;;;;;;;;;4970323;28;20027;-69
2022/10/13 08:46:15;;;;;;;56.95;32.05;;;;;;;;;;4957821;28;20038;-68
2022/10/13 08:48:41;;;;;;;52.53;31.02;;;;;;;;;;4965418;28;20102;-68
2022/10/13 08:51:07;;;;;;;59.00;30.85;;;;;;;;;;4970551;28;20062;-68
2022/10/13 08:53:35;;;;;;;60.35;32.97;;;;;;;;;;4971349;28;20039;-68
2022/10/13 08:56:15;;;;;;;55.78;29.63;;;;;;;;;;4967138;28;20042;-69
2022/10/13 08:58:41;;;;;;;59.22;33.00;;;;;;;;;;4967455;28;20093;-68
2022/10/13 09:01:13;;;;;;;61.22;34.50;;;;;;;;;;4967532;28;20046;-68
2022/10/13 09:03:53;;;;;;;61.80;33.30;;;;;;;;;;4971812;28;20027;-67
2022/10/13 09:06:27;;;;;;;58.47;34.30;;;;;;;;;;4967920;28;20431;-68
2022/10/13 09:08:57;;;;;;;56.55;31.60;;;;;;;;;;4970755;28;20058;-67
2022/10/13 09:11:26;;;;;;;68.55;35.78;;;;;;;;;;4972231;28;20561;-67
2022/10/13 09:13:59;;;;;;;63.83;35.42;;;;;;;;;;4972898;28;20027;-69
2022/10/13 09:16:44;;;;;;;56.47;33.67;;;;;;;;;;4973343;28;20503;-68
2022/10/13 09:19:22;;;;;;;63.30;33.42;;;;;;;;;;4969336;28;20391;-68
2022/10/13 09:21:58;;;;;;;56.88;32.28;;;;;;;;;;4970623;28;20384;-70
2022/10/13 09:24:25;;;;;;;65.65;34.33;;;;;;;;;;4982148;28;20046;-67
2022/10/13 09:27:02;;;;;;;61.20;34.45;;;;;;;;;;4974414;28;20042;-68
2022/10/13 09:29:28;;;;;;;58.38;30.60;;;;;;;;;;4972911;28;20023;-67
2022/10/13 09:32:07;;;;;;;52.25;30.83;;;;;;;;;;4974093;28;20089;-67
2022/10/13 09:34:33;;;;;;;63.10;32.42;;;;;;;;;;4966436;28;20114;-70
2022/10/13 09:37:02;;;;;;;59.53;33.25;;;;;;;;;;4974753;28;20031;-69
2022/10/13 09:39:28;;;;;;;62.70;31.20;;;;;;;;;;4969167;28;20033;-68
2022/10/13 09:42:14;;;;;;;57.63;32.50;;;;;;;;;;4974490;28;20039;-68
2022/10/13 09:44:40;;;;;;;54.90;29.60;;;;;;;;;;4964115;28;20086;-67
2022/10/13 09:47:16;;;;;;;48.60;30.17;;;;;;;;;;4971839;28;20049;-67
2022/10/13 09:49:43;;;;;;;50.80;30.10;;;;;;;;;;4967109;28;20502;-68
2022/10/13 09:52:12;;;;;;;50.40;28.98;;;;;;;;;;4960796;28;20039;-69
2022/10/13 09:54:44;;;;;;;61.05;31.52;;;;;;;;;;4982689;28;20034;-68
2022/10/13 09:57:29;;;;;;;45.17;28.75;;;;;;;;;;4969486;28;20101;-68
2022/10/13 09:59:57;;;;;;;54.80;31.42;;;;;;;;;;4966616;28;20442;-69
2022/10/13 10:02:27;;;;;;;56.10;30.10;;;;;;;;;;4967187;28;20026;-68
2022/10/13 10:04:54;;;;;;;49.30;29.27;;;;;;;;;;4983249;28;20037;-68
2022/10/13 10:07:23;;;;;;;52.40;29.80;;;;;;;;;;4973392;28;20449;-68
2022/10/13 10:09:54;;;;;;;50.00;29.45;;;;;;;;;;4970346;28;20047;-68
2022/10/13 10:12:22;;;;;;;49.30;27.15;;;;;;;;;;4970867;28;20037;-70
2022/10/13 10:14:49;;;;;;;41.70;27.15;;;;;;;;;;4973068;28;20380;-70
2022/10/13 10:17:35;;;;;;;43.13;26.30;;;;;;;;;;4968801;28;20025;-70
2022/10/13 10:20:09;;;;;;;49.28;30.77;;;;;;;;;;4968055;28;20031;-68
2022/10/13 10:22:45;;;;;;;49.05;30.40;;;;;;;;;;4962615;28;20082;-69
2022/10/13 10:25:42;;;;;;;46.03;28.92;;;13.50;99.90;;;;;;4973782;28;20031;-69
2022/10/13 10:28:14;;;;;;;42.88;25.85;;;;;;;;;;4970139;28;20047;-68
2022/10/13 10:30:48;;;;;;;48.85;27.60;;;;;;;;;;4967246;28;20062;-69
2022/10/13 10:33:19;;;;;;;48.22;28.52;;;;;;;;;;4973655;28;20027;-68
2022/10/13 10:35:52;;;;;;;49.95;28.65;;;;;;;;;;4969679;28;20097;-68
2022/10/13 10:38:17;;;;;;;46.05;27.98;;;;;;;;;;4971113;28;20035;-69
2022/10/13 10:40:56;;;;;;;46.63;29.88;;;;;;;;;;4971393;28;20487;-70
2022/10/13 10:43:37;;;;;;;41.28;28.08;;;;;;;;;;4968501;28;20039;-69
2022/10/13 10:46:10;;;;;;;45.53;28.55;;;;;;;;;;4965033;28;20054;-69
2022/10/13 10:48:37;;;;;;;43.70;28.85;;;;;;;;;;4972062;28;20065;-68
2022/10/13 10:51:06;;;;;;;45.67;28.58;;;;;;;;;;4968460;28;20046;-67
2022/10/13 10:53:42;;;;;;;53.05;28.42;;;;;;;;;;4969724;28;20472;-69
2022/10/13 10:56:17;;;;;;;42.83;28.02;;;;;;;;;;4961582;28;20043;-68
2022/10/13 10:59:22;;;;;;;41.22;27.00;;;;;;;;;;4970185;28;20023;-69
2022/10/13 11:02:18;;;;;;;44.03;28.15;;;14.00;99.90;;;;;;4909603;29;20099;-69
2022/10/13 11:04:47;;;;;;;37.65;26.58;;;;;;;;;;4905197;29;20154;-68
2022/10/13 11:07:23;;;;;;;41.60;25.17;;;;;;;;;;4947087;28;20573;-69
2022/10/13 11:09:49;;;;;;;38.25;26.48;;;;;;;;;;4965565;28;20074;-69
2022/10/13 11:12:18;;;;;;;41.17;26.83;;;;;;;;;;4988407;28;20074;-70
2022/10/13 11:14:48;;;;;;;35.17;25.02;;;;;;;;;;4972595;28;20093;-69
2022/10/13 11:17:17;;;;;;;38.75;26.25;;;;;;;;;;4971292;28;20510;-70
2022/10/13 11:19:44;;;;;;;39.72;25.52;;;;;;;;;;4967522;28;20109;-69
2022/10/13 11:22:15;;;;;;;34.97;24.33;;;;;;;;;;4969759;28;20034;-69
2022/10/13 11:24:41;;;;;;;36.58;24.00;;;;;;;;;;4969555;28;20031;-71
2022/10/13 11:27:12;;;;;;;38.10;23.70;;;;;;;;;;4964096;28;20115;-69
2022/10/13 11:29:51;;;;;;;32.70;22.60;;;;;;;;;;4983001;28;20313;-69
2022/10/13 11:32:26;;;;;;;33.75;22.52;;;;;;;;;;4970195;28;20046;-71
2022/10/13 11:35:04;;;;;;;27.05;18.83;;;;;;;;;;4970629;28;20097;-70
2022/10/13 11:37:48;;;;;;;22.67;16.02;;;14.70;99.90;;;;;;4963447;28;20141;-68
2022/10/13 11:40:19;;;;;;;22.08;16.95;;;;;;;;;;4971474;28;20026;-69
2022/10/13 11:42:46;;;;;;;26.50;15.90;;;;;;;;;;4969226;28;20364;-69
2022/10/13 11:45:29;;;;;;;23.65;16.05;;;;;;;;;;4970168;28;20042;-68
2022/10/13 11:47:55;;;;;;;23.67;16.05;;;;;;;;;;4966410;28;20446;-72
2022/10/13 11:50:33;;;;;;;26.08;16.95;;;;;;;;;;4967620;28;20088;-69
2022/10/13 11:53:19;;;;;;;22.85;14.65;;;;;;;;;;4968181;28;20034;-69
2022/10/13 11:55:50;;;;;;;24.55;16.40;;;;;;;;;;4960641;28;20057;-69
2022/10/13 11:58:29;;;;;;;26.65;16.85;;;;;;;;;;4970220;28;20085;-68
2022/10/13 12:00:56;;;;;;;22.55;15.10;;;;;;;;;;4969901;28;20030;-69
2022/10/13 12:03:25;;;;;;;26.55;15.90;;;;;;;;;;4970803;28;20316;-68
2022/10/13 12:05:53;;;;;;;25.20;16.27;;;;;;;;;;4963879;28;20386;-69
2022/10/13 12:08:20;;;;;;;32.72;22.80;;;;;;;;;;4965037;28;20364;-69
2022/10/13 12:10:51;;;;;;;41.55;26.42;;;;;;;;;;4969759;28;20101;-70
2022/10/13 12:13:28;;;;;;;34.03;22.52;;;;;;;;;;4965817;28;20483;-72
2022/10/13 12:16:02;;;;;;;29.13;19.10;;;;;;;;;;4963272;28;20026;-71
2022/10/13 12:18:32;;;;;;;25.00;17.13;;;;;;;;;;4965972;28;20031;-69
2022/10/13 12:21:00;;;;;;;31.88;18.98;;;;;;;;;;4965219;28;20076;-69
2022/10/13 12:23:26;;;;;;;28.25;18.75;;;;;;;;;;4971050;28;20030;-71
2022/10/13 12:25:57;;;;;;;29.00;19.40;;;;;;;;;;4967257;28;20035;-70
2022/10/13 12:28:24;;;;;;;28.48;20.25;;;;;;;;;;4969328;28;20383;-69
2022/10/13 12:30:53;;;;;;;34.33;22.05;;;;;;;;;;4970036;28;20066;-69
2022/10/13 12:33:30;;;;;;;36.17;21.60;;;;;;;;;;4968073;28;20184;-70
2022/10/13 12:36:10;;;;;;;29.95;20.13;;;;;;;;;;4968232;28;20074;-69
2022/10/13 12:38:37;;;;;;;25.58;19.00;;;;;;;;;;4967139;28;20031;-69
2022/10/13 12:41:03;;;;;;;26.58;19.33;;;;;;;;;;4961598;28;20476;-69
2022/10/13 12:43:29;;;;;;;30.20;19.77;;;;;;;;;;4973008;28;20022;-69
2022/10/13 12:45:55;;;;;;;28.33;19.80;;;;;;;;;;4974853;28;20086;-71
2022/10/13 12:48:34;;;;;;;34.22;20.30;;;;;;;;;;4974681;28;20092;-69
2022/10/13 12:51:08;;;;;;;34.13;21.05;;;;;;;;;;4974264;28;20125;-69
2022/10/13 12:53:34;;;;;;;30.83;20.83;;;;;;;;;;4969120;28;20042;-70
2022/10/13 12:56:01;;;;;;;37.58;22.88;;;;;;;;;;4968932;28;20519;-70
2022/10/13 12:58:31;;;;;;;32.95;21.95;;;;;;;;;;4964656;28;20023;-71
2022/10/13 13:00:59;;;;;;;30.42;21.48;;;;;;;;;;4969373;28;20023;-69
2022/10/13 13:03:27;;;;;;;30.48;20.85;;;;;;;;;;4969032;28;20042;-69
2022/10/13 13:06:07;;;;;;;29.85;19.63;;;;;;;;;;4972910;28;20045;-71
2022/10/13 13:08:33;;;;;;;25.90;19.60;;;;;;;;;;4975121;28;20042;-69
2022/10/13 13:11:00;;;;;;;28.85;19.77;;;;;;;;;;4968276;28;20051;-69
2022/10/13 13:13:26;;;;;;;28.83;19.17;;;;;;;;;;4955234;28;20026;-69
2022/10/13 13:15:53;;;;;;;23.30;18.88;;;;;;;;;;4971679;28;20038;-69
2022/10/13 13:18:22;;;;;;;24.85;18.05;;;;;;;;;;4975124;28;20542;-69
2022/10/13 13:20:48;;;;;;;30.50;19.00;;;;;;;;;;4971457;28;20044;-69
2022/10/13 13:23:17;;;;;;;23.58;18.50;;;;;;;;;;4975228;28;20035;-68
2022/10/13 13:25:43;;;;;;;24.70;18.33;;;;;;;;;;4971105;28;20046;-69
2022/10/13 13:28:10;;;;;;;30.15;18.65;;;;;;;;;;4973692;28;20034;-68
2022/10/13 13:30:36;;;;;;;28.10;18.35;;;;;;;;;;4973674;28;20503;-69
2022/10/13 13:33:02;;;;;;;29.23;18.40;;;;;;;;;;4975202;28;20069;-69
2022/10/13 13:35:28;;;;;;;25.90;17.80;;;;;;;;;;4975487;28;20023;-68
2022/10/13 13:37:55;;;;;;;26.33;18.42;;;;;;;;;;4960712;28;20085;-69
2022/10/13 13:40:22;;;;;;;26.25;16.50;;;;;;;;;;4970666;28;20090;-69
2022/10/13 13:42:48;;;;;;;26.00;17.75;;;;;;;;;;4963058;28;20031;-69
2022/10/13 13:45:14;;;;;;;28.98;17.00;;;;;;;;;;4969550;28;20431;-69
2022/10/13 13:47:40;;;;;;;27.05;16.90;;;;;;;;;;4973245;28;20067;-69
2022/10/13 13:50:25;;;;;;;28.90;17.52;;;;;;;;;;4970718;28;20142;-70
2022/10/13 13:52:51;;;;;;;23.88;17.02;;;;;;;;;;4973287;28;20035;-69
2022/10/13 13:55:17;;;;;;;25.50;17.95;;;;;;;;;;4973965;28;20431;-69
2022/10/13 13:57:44;;;;;;;22.33;16.20;;;;;;;;;;4967096;28;20140;-68
2022/10/13 14:00:11;;;;;;;29.60;18.33;;;;;;;;;;4969681;28;20023;-69
2022/10/13 14:02:37;;;;;;;26.25;17.30;;;;;;;;;;4973408;28;20042;-69
2022/10/13 14:05:03;;;;;;;23.52;16.00;;;;;;;;;;4974251;28;20026;-69
2022/10/13 14:07:29;;;;;;;25.08;16.02;;;;;;;;;;4988018;28;20114;-69
2022/10/13 14:09:55;;;;;;;33.33;18.48;;;;;;;;;;4973946;28;20051;-69
2022/10/13 14:12:22;;;;;;;24.30;15.75;;;;;;;;;;4962037;28;20058;-70
2022/10/13 14:14:48;;;;;;;20.58;15.05;;;;;;;;;;4986452;28;20523;-70
2022/10/13 14:17:14;;;;;;;22.35;14.75;;;;;;;;;;4974072;28;20066;-69
2022/10/13 14:19:41;;;;;;;23.00;14.57;;;;;;;;;;4972488;28;20066;-68
2022/10/13 14:22:07;;;;;;;25.90;15.82;;;;;;;;;;4973905;28;20066;-68
2022/10/13 14:24:33;;;;;;;25.05;15.52;;;;;;;;;;4973457;28;20034;-68
2022/10/13 14:26:59;;;;;;;20.05;13.05;;;;;;;;;;4970783;28;20467;-68